Time;durP1;ratioP1;P1;durP2;ratioP2;P2;SDS_P1;SDS_P2;PMS_P1;PMS_P2;Temp;Humidity;BMP_temperature;BMP_pressure;BME280_temperature;BME280_humidity;BME280_pressure;Samples;Min_cycle;Max_cycle;Signal;HPM_P1;HPM_P2
2023/12/10 00:00:07;;;;;;;21.17;4.10;;;9.10;99.90;;;;;;5147578;27;20181;-50
2023/12/10 00:02:33;;;;;;;15.23;3.00;;;9.10;99.90;;;;;;5147581;27;20280;-50
2023/12/10 00:04:58;;;;;;;21.88;3.78;;;9.10;99.90;;;;;;5147385;27;20023;-53
2023/12/10 00:07:24;;;;;;;20.95;3.95;;;9.10;99.90;;;;;;5146950;27;20213;-50
2023/12/10 00:09:50;;;;;;;20.88;2.88;;;9.10;99.90;;;;;;5147392;27;20035;-50
2023/12/10 00:12:16;;;;;;;17.95;3.00;;;9.10;99.90;;;;;;5146264;27;20031;-50
2023/12/10 00:14:42;;;;;;;18.45;3.00;;;9.10;99.90;;;;;;5146779;27;20083;-50
2023/12/10 00:17:07;;;;;;;16.80;2.95;;;9.10;99.90;;;;;;5146994;27;20019;-50
2023/12/10 00:19:34;;;;;;;17.63;3.45;;;9.10;99.90;;;;;;5147261;27;20341;-50
2023/12/10 00:21:59;;;;;;;18.77;3.22;;;9.00;99.90;;;;;;5147176;27;20042;-51
2023/12/10 00:24:25;;;;;;;29.08;2.92;;;8.90;99.90;;;;;;5147109;27;20031;-50
2023/12/10 00:26:51;;;;;;;17.77;2.58;;;8.90;99.90;;;;;;5146804;27;20283;-46
2023/12/10 00:29:17;;;;;;;21.52;3.40;;;8.90;99.90;;;;;;5145904;27;20046;-49
2023/12/10 00:31:43;;;;;;;20.83;3.65;;;8.90;99.90;;;;;;5146888;27;20039;-47
2023/12/10 00:34:09;;;;;;;18.73;3.10;;;8.90;99.90;;;;;;5146889;27;20029;-46
2023/12/10 00:36:35;;;;;;;21.20;3.83;;;8.90;99.90;;;;;;5145791;27;20281;-46
2023/12/10 00:39:04;;;;;;;23.80;3.05;;;8.80;99.90;;;;;;5146651;27;20277;-47
2023/12/10 00:41:30;;;;;;;15.80;3.20;;;8.80;99.90;;;;;;5146277;27;20096;-47
2023/12/10 00:43:56;;;;;;;20.35;3.38;;;8.70;99.90;;;;;;5146647;27;20031;-47
2023/12/10 00:46:22;;;;;;;16.05;2.97;;;8.70;99.90;;;;;;5146908;27;20258;-46
2023/12/10 00:48:47;;;;;;;14.82;2.13;;;8.80;99.90;;;;;;5146744;27;20027;-47
2023/12/10 00:51:20;;;;;;;11.48;2.25;;;8.70;99.90;;;;;;5145632;27;20276;-47
2023/12/10 00:53:46;;;;;;;22.63;3.15;;;8.70;99.90;;;;;;5146870;28;20039;-47
2023/12/10 00:56:12;;;;;;;20.23;2.78;;;8.70;99.90;;;;;;5145776;28;20042;-47
2023/12/10 00:58:37;;;;;;;15.70;3.08;;;8.70;99.90;;;;;;5145649;28;20031;-46
2023/12/10 01:01:03;;;;;;;15.35;2.50;;;8.70;99.90;;;;;;5146680;28;20293;-47
2023/12/10 01:03:29;;;;;;;15.95;2.67;;;8.70;99.90;;;;;;5146612;28;20082;-47
2023/12/10 01:05:55;;;;;;;16.40;2.72;;;8.70;99.90;;;;;;5146698;28;20042;-47
2023/12/10 01:08:20;;;;;;;21.60;3.55;;;8.60;99.90;;;;;;5146074;28;20047;-47
2023/12/10 01:10:46;;;;;;;23.45;3.22;;;8.60;99.90;;;;;;5146012;28;20019;-47
2023/12/10 01:13:12;;;;;;;17.08;2.67;;;8.60;99.90;;;;;;5146393;28;20185;-48
2023/12/10 01:15:37;;;;;;;19.63;2.80;;;8.60;99.90;;;;;;5146274;28;20031;-48
2023/12/10 01:18:03;;;;;;;17.60;3.35;;;8.60;99.90;;;;;;5146562;28;20320;-47
2023/12/10 01:20:30;;;;;;;22.70;3.85;;;8.60;99.90;;;;;;5146525;28;20030;-47
2023/12/10 01:22:56;;;;;;;17.00;2.40;;;8.60;99.90;;;;;;5145307;28;20039;-47
2023/12/10 01:25:22;;;;;;;18.00;2.45;;;8.70;99.90;;;;;;5146513;28;20023;-47
2023/12/10 01:27:48;;;;;;;16.38;2.92;;;8.60;99.90;;;;;;5146370;28;20217;-47
2023/12/10 01:30:14;;;;;;;17.08;3.05;;;8.60;99.90;;;;;;5146658;28;20031;-48
2023/12/10 01:32:40;;;;;;;19.10;3.10;;;8.60;99.90;;;;;;5144929;28;20019;-48
2023/12/10 01:35:08;;;;;;;24.58;2.78;;;8.70;99.90;;;;;;5145379;28;20031;-48
2023/12/10 01:37:33;;;;;;;21.02;2.95;;;8.70;99.90;;;;;;5145207;28;20034;-48
2023/12/10 01:39:59;;;;;;;15.52;2.60;;;8.70;99.90;;;;;;5145107;28;20026;-46
2023/12/10 01:42:25;;;;;;;17.98;2.40;;;8.60;99.90;;;;;;5145133;28;20140;-47
2023/12/10 01:44:50;;;;;;;21.95;3.40;;;8.60;99.90;;;;;;5148135;27;20026;-47
2023/12/10 01:47:18;;;;;;;12.70;2.60;;;8.60;99.90;;;;;;5149933;27;20042;-47
2023/12/10 01:49:44;;;;;;;16.90;2.38;;;8.60;99.90;;;;;;5149781;27;20043;-47
2023/12/10 01:52:10;;;;;;;14.20;2.00;;;8.60;99.90;;;;;;5149085;27;20199;-47
2023/12/10 01:54:35;;;;;;;19.02;2.42;;;8.70;99.90;;;;;;5131848;27;20038;-50
2023/12/10 01:57:02;;;;;;;12.32;2.20;;;8.70;99.90;;;;;;5148894;27;20173;-49
2023/12/10 01:59:27;;;;;;;12.93;2.53;;;8.70;99.90;;;;;;5149037;27;20344;-50
2023/12/10 02:01:53;;;;;;;18.50;2.58;;;8.70;99.90;;;;;;5148742;27;20048;-50
2023/12/10 02:04:19;;;;;;;12.20;1.80;;;8.70;99.90;;;;;;5149487;27;20035;-50
2023/12/10 02:06:46;;;;;;;13.95;2.25;;;8.70;99.90;;;;;;5148755;27;20045;-50
2023/12/10 02:09:18;;;;;;;15.77;2.45;;;8.70;99.90;;;;;;5148889;27;20046;-49
2023/12/10 02:11:44;;;;;;;14.63;2.63;;;8.60;99.90;;;;;;5148904;27;20027;-50
2023/12/10 02:14:09;;;;;;;24.55;2.85;;;8.60;99.90;;;;;;5149524;27;20031;-51
2023/12/10 02:16:35;;;;;;;18.55;2.97;;;8.60;99.90;;;;;;5149659;27;20031;-50
2023/12/10 02:19:01;;;;;;;14.70;2.60;;;8.50;99.90;;;;;;5148343;27;20041;-52
2023/12/10 02:21:26;;;;;;;12.13;2.95;;;8.50;99.90;;;;;;5149518;27;20023;-50
2023/12/10 02:24:01;;;;;;;17.65;3.20;;;8.50;99.90;;;;;;5149449;27;20023;-50
2023/12/10 02:26:27;;;;;;;17.25;2.80;;;8.60;99.90;;;;;;5148420;27;20031;-50
2023/12/10 02:28:53;;;;;;;18.75;2.90;;;8.50;99.90;;;;;;5149304;27;20077;-51
2023/12/10 02:31:19;;;;;;;15.13;2.72;;;8.50;99.90;;;;;;5149180;27;20051;-49
2023/12/10 02:33:45;;;;;;;17.08;2.63;;;8.50;99.90;;;;;;5148714;27;20057;-52
2023/12/10 02:36:12;;;;;;;18.45;3.15;;;8.50;99.90;;;;;;5148615;27;20038;-56
2023/12/10 02:38:37;;;;;;;24.33;3.95;;;8.50;99.90;;;;;;5148705;27;20292;-49
2023/12/10 02:41:03;;;;;;;18.38;3.13;;;8.50;99.90;;;;;;5149053;27;20027;-50
2023/12/10 02:43:29;;;;;;;17.77;2.88;;;8.50;99.90;;;;;;5148006;27;20078;-46
2023/12/10 02:45:55;;;;;;;12.88;2.70;;;8.50;99.90;;;;;;5149088;27;20026;-47
2023/12/10 02:48:22;;;;;;;10.15;2.45;;;8.60;99.90;;;;;;5149129;27;20206;-47
2023/12/10 02:50:49;;;;;;;18.85;2.42;;;8.70;99.90;;;;;;5147721;27;20038;-46
2023/12/10 02:53:15;;;;;;;15.90;2.88;;;8.80;99.90;;;;;;5147935;27;20019;-47
2023/12/10 02:55:41;;;;;;;16.17;2.70;;;8.80;99.90;;;;;;5147526;27;20042;-47
2023/12/10 02:58:07;;;;;;;14.63;2.80;;;8.80;99.90;;;;;;5148839;27;20288;-47
2023/12/10 03:00:32;;;;;;;17.92;2.67;;;8.90;99.90;;;;;;5130576;27;20154;-47
2023/12/10 03:02:58;;;;;;;15.27;2.60;;;8.90;99.90;;;;;;5147794;27;20031;-50
2023/12/10 03:05:24;;;;;;;17.55;2.35;;;8.90;99.90;;;;;;5148356;27;20038;-50
2023/12/10 03:07:50;;;;;;;12.45;2.53;;;8.90;99.90;;;;;;5148132;27;20092;-49
2023/12/10 03:10:16;;;;;;;20.33;3.10;;;8.90;99.90;;;;;;5148561;27;20035;-50
2023/12/10 03:12:42;;;;;;;10.43;2.40;;;8.90;99.90;;;;;;5148374;27;20062;-47
2023/12/10 03:15:07;;;;;;;12.88;2.60;;;8.90;99.90;;;;;;5148539;27;20056;-50
2023/12/10 03:17:33;;;;;;;14.05;2.85;;;8.80;99.90;;;;;;5148289;27;20034;-50
2023/12/10 03:20:00;;;;;;;18.30;2.55;;;8.80;99.90;;;;;;5130071;27;20118;-50
2023/12/10 03:22:26;;;;;;;12.40;2.38;;;8.70;99.90;;;;;;5148283;27;20027;-50
2023/12/10 03:24:51;;;;;;;17.30;2.60;;;8.70;99.90;;;;;;5148235;27;20023;-50
2023/12/10 03:27:17;;;;;;;11.38;2.08;;;8.60;99.90;;;;;;5147008;27;20023;-50
2023/12/10 03:29:43;;;;;;;16.92;3.08;;;8.60;99.90;;;;;;5148081;27;20303;-49
2023/12/10 03:32:09;;;;;;;13.70;2.47;;;8.60;99.90;;;;;;5147290;27;20050;-50
2023/12/10 03:34:34;;;;;;;15.02;2.50;;;8.50;99.90;;;;;;5148046;27;20031;-50
2023/12/10 03:37:00;;;;;;;14.27;2.55;;;8.50;99.90;;;;;;5147766;27;20033;-50
2023/12/10 03:39:26;;;;;;;10.23;2.40;;;8.50;99.90;;;;;;5147666;27;20083;-51
2023/12/10 03:41:52;;;;;;;11.50;2.47;;;8.50;99.90;;;;;;5146833;27;20178;-50
2023/12/10 03:44:17;;;;;;;14.18;2.17;;;8.40;99.90;;;;;;5146768;27;20023;-50
2023/12/10 03:46:43;;;;;;;9.07;2.28;;;8.40;99.90;;;;;;5147457;27;20043;-50
2023/12/10 03:49:09;;;;;;;16.38;2.15;;;8.40;99.90;;;;;;5147949;27;20028;-50
2023/12/10 03:51:35;;;;;;;18.27;3.05;;;8.40;99.90;;;;;;5147198;27;20023;-49
2023/12/10 03:54:01;;;;;;;12.13;2.25;;;8.40;99.90;;;;;;5147588;27;20026;-47
2023/12/10 03:56:26;;;;;;;13.35;2.90;;;8.30;99.90;;;;;;5147682;27;20057;-48
2023/12/10 03:58:52;;;;;;;16.05;2.63;;;8.30;99.90;;;;;;5146385;27;20068;-47
2023/12/10 04:01:18;;;;;;;10.40;2.40;;;8.30;99.90;;;;;;5147346;27;20041;-50
2023/12/10 04:03:43;;;;;;;15.00;2.10;;;8.20;99.90;;;;;;5147394;27;20180;-47
2023/12/10 04:06:09;;;;;;;11.98;2.00;;;8.10;99.90;;;;;;5147311;27;20019;-48
2023/12/10 04:08:35;;;;;;;15.75;2.70;;;8.10;99.90;;;;;;5146842;27;20162;-48
2023/12/10 04:11:01;;;;;;;15.93;2.17;;;8.10;99.90;;;;;;5147329;27;20077;-47
2023/12/10 04:13:26;;;;;;;14.23;2.42;;;8.00;99.90;;;;;;5147195;27;20201;-47
2023/12/10 04:15:52;;;;;;;11.38;2.15;;;8.00;99.90;;;;;;5147348;27;20047;-47
2023/12/10 04:18:18;;;;;;;20.35;2.60;;;8.00;99.90;;;;;;5147251;27;20038;-46
2023/12/10 04:20:44;;;;;;;16.77;3.33;;;8.00;99.90;;;;;;5146875;27;20019;-46
2023/12/10 04:23:09;;;;;;;12.82;2.80;;;8.00;99.90;;;;;;5146707;27;20296;-47
2023/12/10 04:25:35;;;;;;;14.95;3.00;;;8.10;99.90;;;;;;5147031;27;20031;-46
2023/12/10 04:28:01;;;;;;;23.52;2.92;;;8.10;99.90;;;;;;5145803;27;20019;-46
2023/12/10 04:30:26;;;;;;;15.50;2.40;;;8.10;99.90;;;;;;5147000;27;20047;-50
2023/12/10 04:32:53;;;;;;;15.43;2.83;;;8.20;99.90;;;;;;5146934;27;20083;-48
2023/12/10 04:35:19;;;;;;;10.73;2.38;;;8.20;99.90;;;;;;5146650;27;20054;-49
2023/12/10 04:37:45;;;;;;;13.70;2.65;;;8.20;99.90;;;;;;5145773;27;20184;-50
2023/12/10 04:40:11;;;;;;;16.17;2.78;;;8.30;99.90;;;;;;5147077;27;20030;-47
2023/12/10 04:42:38;;;;;;;14.40;2.90;;;8.30;99.90;;;;;;5146955;27;20023;-50
2023/12/10 04:45:06;;;;;;;13.48;2.47;;;8.30;99.90;;;;;;5146632;27;20105;-50
2023/12/10 04:47:32;;;;;;;16.88;2.35;;;8.30;99.90;;;;;;5146798;27;20219;-51
2023/12/10 04:49:58;;;;;;;12.98;2.20;;;8.40;99.90;;;;;;5146956;27;20023;-48
2023/12/10 04:52:23;;;;;;;19.00;2.90;;;8.30;99.90;;;;;;5146744;27;20090;-51
2023/12/10 04:54:49;;;;;;;12.98;2.50;;;8.30;99.90;;;;;;5146428;27;20031;-48
2023/12/10 04:57:15;;;;;;;21.27;2.70;;;8.30;99.90;;;;;;5146689;28;20288;-49
2023/12/10 04:59:41;;;;;;;11.32;2.40;;;8.30;99.90;;;;;;5146845;28;20280;-50
2023/12/10 05:02:06;;;;;;;17.58;2.40;;;8.30;99.90;;;;;;5146736;28;20194;-47
2023/12/10 05:04:32;;;;;;;11.93;2.42;;;8.30;99.90;;;;;;5145680;28;20019;-48
2023/12/10 05:06:57;;;;;;;14.45;2.55;;;8.30;99.90;;;;;;5146377;28;20043;-47
2023/12/10 05:09:23;;;;;;;15.93;2.97;;;8.30;99.90;;;;;;5145885;28;20193;-47
2023/12/10 05:11:49;;;;;;;12.35;2.58;;;8.30;99.90;;;;;;5145459;28;20019;-48
2023/12/10 05:14:14;;;;;;;19.20;2.90;;;8.30;99.90;;;;;;5146167;28;20046;-48
2023/12/10 05:16:40;;;;;;;11.93;2.63;;;8.40;99.90;;;;;;5146620;28;20034;-47
2023/12/10 05:19:06;;;;;;;18.50;2.90;;;8.40;99.90;;;;;;5147788;27;20260;-50
2023/12/10 05:21:33;;;;;;;15.85;2.33;;;8.40;99.90;;;;;;5150538;27;20042;-51
2023/12/10 05:23:59;;;;;;;14.15;2.35;;;8.40;99.90;;;;;;5150619;27;20023;-50
2023/12/10 05:26:24;;;;;;;11.10;2.40;;;8.50;99.90;;;;;;5150637;27;20042;-49
2023/12/10 05:28:50;;;;;;;15.75;1.77;;;8.50;99.90;;;;;;5150285;27;20091;-51
2023/12/10 05:31:16;;;;;;;9.65;2.05;;;8.50;99.90;;;;;;5150492;27;20322;-51
2023/12/10 05:33:41;;;;;;;19.70;3.95;;;8.60;99.90;;;;;;5149418;27;20309;-50
2023/12/10 05:36:08;;;;;;;13.27;2.30;;;8.60;99.90;;;;;;5149449;27;20042;-51
2023/12/10 05:38:33;;;;;;;15.55;2.40;;;8.50;99.90;;;;;;5150307;27;20015;-51
2023/12/10 05:40:59;;;;;;;16.40;2.10;;;8.50;99.90;;;;;;5150079;27;20030;-51
2023/12/10 05:43:25;;;;;;;18.17;2.88;;;8.50;99.90;;;;;;5149190;27;20054;-48
2023/12/10 05:45:51;;;;;;;11.02;2.15;;;8.50;99.90;;;;;;5150368;27;20288;-50
2023/12/10 05:48:16;;;;;;;18.25;2.70;;;8.60;99.90;;;;;;5150322;27;20072;-49
2023/12/10 05:50:42;;;;;;;15.48;2.10;;;8.60;99.90;;;;;;5149810;27;20038;-51
2023/12/10 05:53:08;;;;;;;12.18;2.63;;;8.70;99.90;;;;;;5149353;27;20086;-50
2023/12/10 05:55:34;;;;;;;14.40;2.60;;;8.70;99.90;;;;;;5150050;27;20042;-48
2023/12/10 05:57:59;;;;;;;23.02;2.45;;;8.70;99.90;;;;;;5150012;27;20027;-51
2023/12/10 06:00:25;;;;;;;17.55;2.40;;;8.70;99.90;;;;;;5148795;27;20027;-51
2023/12/10 06:02:51;;;;;;;14.32;2.03;;;8.70;99.90;;;;;;5148840;27;20078;-50
2023/12/10 06:05:16;;;;;;;14.18;2.17;;;8.70;99.90;;;;;;5149664;27;20188;-50
2023/12/10 06:07:42;;;;;;;13.50;2.28;;;8.70;99.90;;;;;;5149307;27;20224;-50
2023/12/10 06:10:08;;;;;;;17.15;2.42;;;8.70;99.90;;;;;;5149863;27;20054;-51
2023/12/10 06:12:34;;;;;;;15.43;3.20;;;8.70;99.90;;;;;;5149824;27;20034;-48
2023/12/10 06:15:00;;;;;;;17.83;3.35;;;8.80;99.90;;;;;;5149569;27;20047;-48
2023/12/10 06:17:25;;;;;;;13.73;2.67;;;8.80;99.90;;;;;;5148392;27;20351;-47
2023/12/10 06:19:51;;;;;;;17.30;2.97;;;8.80;99.90;;;;;;5149527;27;20045;-48
2023/12/10 06:22:17;;;;;;;16.95;2.92;;;8.80;99.90;;;;;;5149620;27;20026;-47
2023/12/10 06:24:42;;;;;;;13.13;1.98;;;8.70;99.90;;;;;;5149408;27;20176;-47
2023/12/10 06:27:08;;;;;;;14.45;2.80;;;8.70;99.90;;;;;;5149444;27;20045;-49
2023/12/10 06:29:34;;;;;;;12.68;2.60;;;8.70;99.90;;;;;;5149184;27;20289;-49
2023/12/10 06:31:59;;;;;;;15.20;2.65;;;8.70;99.90;;;;;;5149083;27;20301;-48
2023/12/10 06:34:25;;;;;;;17.10;2.30;;;8.70;99.90;;;;;;5149258;27;20050;-49
2023/12/10 06:36:51;;;;;;;11.90;2.25;;;8.70;99.90;;;;;;5149173;27;20015;-49
2023/12/10 06:39:16;;;;;;;12.10;2.40;;;8.60;99.90;;;;;;5149053;27;20037;-50
2023/12/10 06:41:42;;;;;;;12.30;2.30;;;8.60;99.90;;;;;;5149130;27;20027;-49
2023/12/10 06:44:09;;;;;;;14.05;1.73;;;8.60;99.90;;;;;;5149153;27;20057;-48
2023/12/10 06:46:37;;;;;;;14.18;2.03;;;8.60;99.90;;;;;;5149056;27;20058;-50
2023/12/10 06:49:03;;;;;;;13.88;2.28;;;8.60;99.90;;;;;;5148637;27;20177;-50
2023/12/10 06:51:28;;;;;;;12.13;2.03;;;8.60;99.90;;;;;;5148850;27;20090;-51
2023/12/10 06:53:54;;;;;;;14.30;1.65;;;8.50;99.90;;;;;;5148921;27;20139;-51
2023/12/10 06:56:20;;;;;;;8.88;1.50;;;8.60;99.90;;;;;;5148920;27;20030;-51
2023/12/10 06:58:45;;;;;;;8.30;1.77;;;8.60;99.90;;;;;;5148459;27;20095;-50
2023/12/10 07:01:11;;;;;;;12.00;2.00;;;8.60;99.90;;;;;;5147978;27;20027;-48
2023/12/10 07:03:37;;;;;;;12.70;2.75;;;8.60;99.90;;;;;;5147490;27;20023;-50
2023/12/10 07:06:03;;;;;;;13.65;2.13;;;8.60;99.90;;;;;;5148747;27;20042;-50
2023/12/10 07:08:30;;;;;;;11.20;1.80;;;8.60;99.90;;;;;;5148114;27;20062;-50
2023/12/10 07:10:56;;;;;;;11.88;2.30;;;8.60;99.90;;;;;;5148273;27;20026;-50
2023/12/10 07:13:22;;;;;;;11.48;2.15;;;8.70;99.90;;;;;;5148356;27;20062;-50
2023/12/10 07:15:48;;;;;;;13.45;2.47;;;8.60;99.90;;;;;;5148383;27;20030;-50
2023/12/10 07:18:14;;;;;;;13.77;2.13;;;8.60;99.90;;;;;;5148520;27;20037;-51
2023/12/10 07:20:39;;;;;;;13.65;2.72;;;8.60;99.90;;;;;;5148458;27;20039;-50
2023/12/10 07:23:05;;;;;;;15.65;1.98;;;8.60;99.90;;;;;;5148290;27;20042;-50
2023/12/10 07:25:31;;;;;;;17.75;2.83;;;8.60;99.90;;;;;;5148776;27;20031;-48
2023/12/10 07:27:56;;;;;;;17.33;4.85;;;8.50;99.90;;;;;;5148187;27;20031;-48
2023/12/10 07:30:22;;;;;;;12.82;2.83;;;8.50;99.90;;;;;;5148180;27;20088;-47
2023/12/10 07:32:48;;;;;;;14.98;2.90;;;8.50;99.90;;;;;;5147701;27;20026;-48
2023/12/10 07:35:14;;;;;;;8.77;2.33;;;8.50;99.90;;;;;;5147745;27;20088;-48
2023/12/10 07:37:40;;;;;;;15.93;2.38;;;8.40;99.90;;;;;;5146904;27;20027;-48
2023/12/10 07:40:06;;;;;;;12.70;2.25;;;8.40;99.90;;;;;;5147990;27;20031;-51
2023/12/10 07:42:32;;;;;;;14.85;2.80;;;8.40;99.90;;;;;;5147382;27;20031;-51
2023/12/10 07:44:57;;;;;;;13.38;2.67;;;8.40;99.90;;;;;;5146662;27;20150;-50
2023/12/10 07:47:23;;;;;;;6.20;2.38;;;8.40;99.90;;;;;;5147792;27;20035;-51
2023/12/10 07:49:49;;;;;;;16.00;2.30;;;8.40;99.90;;;;;;5147822;27;20291;-50
2023/12/10 07:52:14;;;;;;;11.68;2.30;;;8.40;99.90;;;;;;5147905;27;20023;-50
2023/12/10 07:54:40;;;;;;;13.18;2.13;;;8.40;99.90;;;;;;5147200;27;20061;-58
2023/12/10 07:57:06;;;;;;;14.68;2.83;;;8.40;99.90;;;;;;5147613;27;20266;-51
2023/12/10 07:59:31;;;;;;;16.55;1.98;;;8.50;99.90;;;;;;5147490;27;20023;-51
2023/12/10 08:01:57;;;;;;;16.92;3.22;;;8.50;99.90;;;;;;5147568;27;20054;-51
2023/12/10 08:04:23;;;;;;;17.98;3.00;;;8.60;99.90;;;;;;5147739;27;20035;-51
2023/12/10 08:06:49;;;;;;;17.88;3.42;;;8.70;99.90;;;;;;5145992;27;20082;-51
2023/12/10 08:09:15;;;;;;;15.07;2.95;;;8.80;99.90;;;;;;5147170;27;20249;-50
2023/12/10 08:11:41;;;;;;;12.07;2.10;;;8.90;99.90;;;;;;5147417;27;20035;-50
2023/12/10 08:14:06;;;;;;;17.08;3.78;;;8.90;99.90;;;;;;5147294;27;20188;-51
2023/12/10 08:16:33;;;;;;;21.80;3.08;;;9.10;99.90;;;;;;5147346;27;20184;-50
2023/12/10 08:19:00;;;;;;;20.00;2.90;;;9.20;99.90;;;;;;5147388;27;20072;-50
2023/12/10 08:21:26;;;;;;;17.58;3.45;;;9.30;99.90;;;;;;5147053;27;20026;-50
2023/12/10 08:23:51;;;;;;;15.35;3.40;;;9.30;99.90;;;;;;5147106;27;20078;-49
2023/12/10 08:26:17;;;;;;;23.73;4.45;;;9.30;99.90;;;;;;5147325;27;20031;-53
2023/12/10 08:28:43;;;;;;;23.45;3.10;;;9.40;99.90;;;;;;5146959;27;20082;-51
2023/12/10 08:31:08;;;;;;;25.05;4.10;;;9.40;99.90;;;;;;5147146;27;20277;-50
2023/12/10 08:33:34;;;;;;;22.02;3.72;;;9.40;99.90;;;;;;5146887;27;20034;-47
2023/12/10 08:36:00;;;;;;;37.83;4.32;;;9.40;99.90;;;;;;5146881;27;20158;-47
2023/12/10 08:38:25;;;;;;;26.70;4.18;;;9.40;99.90;;;;;;5146436;27;20027;-46
2023/12/10 08:40:51;;;;;;;23.15;3.85;;;9.40;99.90;;;;;;5147069;27;20177;-47
2023/12/10 08:43:17;;;;;;;29.27;4.47;;;9.40;99.90;;;;;;5146636;27;20015;-47
2023/12/10 08:45:43;;;;;;;25.10;4.13;;;9.50;99.90;;;;;;5146880;27;20082;-47
2023/12/10 08:48:09;;;;;;;24.65;4.47;;;9.60;99.90;;;;;;5146888;27;20070;-47
2023/12/10 08:50:34;;;;;;;27.38;4.43;;;9.50;99.90;;;;;;5146829;27;20094;-46
2023/12/10 08:53:00;;;;;;;23.40;3.85;;;9.60;99.90;;;;;;5146076;27;20276;-47
2023/12/10 08:55:25;;;;;;;24.13;3.75;;;9.50;99.90;;;;;;5146229;27;20075;-47
2023/12/10 08:57:51;;;;;;;22.75;3.47;;;9.50;99.90;;;;;;5146714;28;20291;-47
2023/12/10 09:00:17;;;;;;;23.02;3.53;;;9.50;99.90;;;;;;5146646;28;20233;-47
2023/12/10 09:02:43;;;;;;;22.60;4.22;;;9.50;99.90;;;;;;5146530;28;20039;-47
2023/12/10 09:05:08;;;;;;;24.35;3.58;;;9.50;99.90;;;;;;5146435;28;20019;-47
2023/12/10 09:07:34;;;;;;;22.33;3.25;;;9.50;99.90;;;;;;5146014;28;20078;-47
2023/12/10 09:10:00;;;;;;;26.00;3.72;;;9.40;99.90;;;;;;5146197;28;20091;-47
2023/12/10 09:12:29;;;;;;;24.80;3.78;;;9.40;99.90;;;;;;5146068;28;20030;-47
2023/12/10 09:14:54;;;;;;;17.63;2.80;;;9.30;99.90;;;;;;5128497;28;20035;-47
2023/12/10 09:17:21;;;;;;;20.30;4.20;;;9.10;99.90;;;;;;5146540;28;20035;-47
2023/12/10 09:19:47;;;;;;;19.10;2.80;;;9.10;99.90;;;;;;5146429;27;20019;-47
2023/12/10 09:22:12;;;;;;;8.45;1.50;;;9.00;99.90;;;;;;5146535;28;20038;-48
2023/12/10 09:24:39;;;;;;;18.90;2.78;;;9.00;99.90;;;;;;5146506;28;20039;-47
2023/12/10 09:27:05;;;;;;;15.40;2.35;;;8.80;99.90;;;;;;5146339;28;20020;-47
2023/12/10 09:29:38;;;;;;;23.85;3.17;;;8.70;99.90;;;;;;5146250;28;20180;-47
2023/12/10 09:32:05;;;;;;;13.88;2.65;;;8.70;99.90;;;;;;5146534;28;20042;-48
2023/12/10 09:34:32;;;;;;;20.00;3.25;;;8.70;99.90;;;;;;5146461;28;20031;-45
2023/12/10 09:36:57;;;;;;;20.60;3.70;;;8.70;99.90;;;;;;5146122;28;20072;-46
2023/12/10 09:39:24;;;;;;;9.75;1.95;;;8.70;99.90;;;;;;5146155;28;20047;-46
2023/12/10 09:41:50;;;;;;;8.02;1.63;;;8.70;99.90;;;;;;5145910;28;20023;-46
2023/12/10 09:44:15;;;;;;;12.18;2.80;;;8.50;99.90;;;;;;5146282;28;20061;-46
2023/12/10 09:46:41;;;;;;;16.42;2.33;;;8.60;99.90;;;;;;5145917;28;20136;-45
2023/12/10 09:49:07;;;;;;;11.18;1.83;;;8.50;99.90;;;;;;5145521;28;20047;-46
2023/12/10 09:51:32;;;;;;;18.65;2.15;;;8.50;99.90;;;;;;5146096;28;20075;-45
2023/12/10 09:53:58;;;;;;;13.98;2.17;;;8.50;99.90;;;;;;5146253;28;20284;-46
2023/12/10 09:56:24;;;;;;;10.73;2.10;;;8.50;99.90;;;;;;5145064;28;20023;-46
2023/12/10 09:58:50;;;;;;;13.13;2.25;;;8.60;99.90;;;;;;5144879;28;20226;-45
2023/12/10 10:01:15;;;;;;;12.98;2.20;;;8.50;99.90;;;;;;5146311;28;20087;-46
2023/12/10 10:03:41;;;;;;;9.73;2.05;;;8.50;99.90;;;;;;5146025;28;20019;-46
2023/12/10 10:06:08;;;;;;;10.93;1.73;;;8.50;99.90;;;;;;5147888;27;20053;-48
2023/12/10 10:08:34;;;;;;;10.55;1.67;;;8.50;99.90;;;;;;5149133;27;20067;-47
2023/12/10 10:10:59;;;;;;;10.55;2.15;;;8.50;99.90;;;;;;5148509;27;20034;-47
2023/12/10 10:13:25;;;;;;;10.85;1.70;;;8.50;99.90;;;;;;5149451;27;20023;-50
2023/12/10 10:15:51;;;;;;;9.32;1.80;;;8.50;99.90;;;;;;5149058;27;20208;-48
2023/12/10 10:18:16;;;;;;;8.02;1.50;;;8.50;99.90;;;;;;5131031;27;20238;-49
2023/12/10 10:20:42;;;;;;;9.00;1.95;;;8.50;99.90;;;;;;5149072;27;20061;-50
2023/12/10 10:23:11;;;;;;;9.75;1.70;;;8.50;99.90;;;;;;5149433;27;20220;-49
2023/12/10 10:25:38;;;;;;;12.38;1.98;;;8.50;99.90;;;;;;5149349;27;20075;-50
2023/12/10 10:28:07;;;;;;;8.38;1.67;;;8.60;99.90;;;;;;5148416;27;20034;-49
2023/12/10 10:30:33;;;;;;;10.77;1.73;;;8.70;99.90;;;;;;5149383;27;20269;-50
2023/12/10 10:32:59;;;;;;;7.63;1.40;;;8.90;99.90;;;;;;5149346;27;20027;-50
2023/12/10 10:35:24;;;;;;;6.88;1.33;;;8.90;99.90;;;;;;5130983;27;20087;-49
2023/12/10 10:37:50;;;;;;;6.97;1.20;;;9.00;99.90;;;;;;5148170;27;20015;-49
2023/12/10 10:40:16;;;;;;;5.28;1.00;;;9.20;99.90;;;;;;5149278;27;20022;-50
2023/12/10 10:42:43;;;;;;;2.10;0.70;;;9.20;99.90;;;;;;5148124;27;20031;-49
2023/12/10 10:45:09;;;;;;;3.35;1.23;;;9.40;99.90;;;;;;5148233;27;20315;-50
2023/12/10 10:47:35;;;;;;;8.50;1.50;;;9.40;99.90;;;;;;5148119;27;20034;-50
2023/12/10 10:50:01;;;;;;;5.85;1.42;;;9.60;99.90;;;;;;5130611;27;20035;-49
2023/12/10 10:52:28;;;;;;;7.10;1.20;;;9.70;99.90;;;;;;5147861;27;20280;-50
2023/12/10 10:54:54;;;;;;;9.55;2.22;;;9.80;99.90;;;;;;5130604;27;20027;-49
2023/12/10 10:57:37;;;;;;;8.20;1.73;;;9.90;99.90;;;;;;5148610;27;20027;-50
2023/12/10 11:00:22;;;;;;;8.07;1.83;;;9.90;99.90;;;;;;5148579;27;20154;-50
2023/12/10 11:02:55;;;;;;;6.93;1.42;;;9.90;99.90;;;;;;5137781;27;20062;-49
2023/12/10 11:05:33;;;;;;;13.05;2.50;;;10.00;99.90;;;;;;5148626;27;20023;-49
2023/12/10 11:07:59;;;;;;;16.30;5.85;;;10.10;99.90;;;;;;5148218;27;20110;-49
2023/12/10 11:10:25;;;;;;;85.68;40.28;;;10.10;99.90;;;;;;5148397;27;20027;-49
2023/12/10 11:12:51;;;;;;;22.17;7.60;;;10.10;99.90;;;;;;5148133;27;20095;-50
2023/12/10 11:15:17;;;;;;;11.90;4.55;;;10.00;99.90;;;;;;5148320;27;20035;-50
2023/12/10 11:18:01;;;;;;;23.33;10.93;;;10.10;99.90;;;;;;5146997;27;20023;-50
2023/12/10 11:20:40;;;;;;;17.02;3.95;;;10.10;99.90;;;;;;5147953;27;20027;-48
2023/12/10 11:23:11;;;;;;;15.73;3.90;;;10.10;99.90;;;;;;5148353;27;20098;-48
2023/12/10 11:25:36;;;;;;;;;;;10.20;99.90;;;;;;5148712;27;20042;-50
2023/12/10 11:28:17;;;;;;;15.10;6.80;;;10.20;99.90;;;;;;5148274;27;19974;-47
2023/12/10 11:30:43;;;;;;;12.77;2.83;;;10.20;99.90;;;;;;5148037;27;20027;-47
2023/12/10 11:33:10;;;;;;;8.43;2.70;;;10.20;99.90;;;;;;5148157;27;20027;-47
2023/12/10 11:35:36;;;;;;;13.25;3.95;;;10.20;99.90;;;;;;5148069;27;20098;-47
2023/12/10 11:38:02;;;;;;;12.82;2.78;;;10.20;99.90;;;;;;5148075;27;20084;-47
2023/12/10 11:40:28;;;;;;;9.80;3.25;;;10.30;99.90;;;;;;5148049;27;20031;-47
2023/12/10 11:43:14;;;;;;;22.50;7.38;;;10.50;99.90;;;;;;5146873;27;20165;-47
2023/12/10 11:45:40;;;;;;;15.95;4.05;;;10.50;99.90;;;;;;5146508;27;20062;-49
2023/12/10 11:48:06;;;;;;;14.07;4.40;;;10.60;99.90;;;;;;5146326;27;20280;-46
2023/12/10 11:50:32;;;;;;;13.85;4.03;;;10.70;99.90;;;;;;5147419;27;20027;-49
2023/12/10 11:52:58;;;;;;;14.45;3.00;;;10.80;99.90;;;;;;5147480;27;20102;-49
2023/12/10 11:55:24;;;;;;;23.92;3.47;;;11.00;99.90;;;;;;5146225;27;20023;-49
2023/12/10 11:57:49;;;;;;;18.05;4.03;;;11.10;99.90;;;;;;5147582;27;20076;-49
2023/12/10 12:00:15;;;;;;;11.35;2.75;;;11.10;99.90;;;;;;5147636;27;20133;-49
2023/12/10 12:02:44;;;;;;;17.45;3.17;;;11.20;99.90;;;;;;5147283;27;20045;-48
2023/12/10 12:05:14;;;;;;;20.48;3.15;;;11.50;99.90;;;;;;5146136;27;20019;-49
2023/12/10 12:07:40;;;;;;;;;;;12.20;99.90;;;;;;5147114;27;20059;-50
2023/12/10 12:10:07;;;;;;;38.17;5.03;;;13.30;99.90;;;;;;5147424;27;19914;-49
2023/12/10 12:12:39;;;;;;;26.38;6.05;;;13.90;99.90;;;;;;5147332;27;20019;-50
2023/12/10 12:15:06;;;;;;;27.35;5.70;;;14.40;99.90;;;;;;5146852;27;20031;-47
2023/12/10 12:17:32;;;;;;;25.98;4.10;;;13.50;99.90;;;;;;5147140;27;20023;-49
2023/12/10 12:20:15;;;;;;;23.10;3.80;;;12.90;99.90;;;;;;5146625;27;20015;-50
2023/12/10 12:22:41;;;;;;;18.73;3.42;;;13.40;99.90;;;;;;5146167;27;20084;-50
2023/12/10 12:25:07;;;;;;;57.03;17.95;;;14.10;99.90;;;;;;5145993;27;20285;-49
2023/12/10 12:27:33;;;;;;;108.57;52.85;;;14.70;99.90;;;;;;5146002;27;20058;-50
2023/12/10 12:29:59;;;;;;;37.75;15.73;;;15.00;99.90;;;;;;5147063;27;20035;-50
2023/12/10 12:32:24;;;;;;;75.30;35.22;;;15.20;99.90;;;;;;5146798;27;20146;-50
2023/12/10 12:34:50;;;;;;;27.17;9.48;;;15.40;99.90;;;;;;5145892;27;20111;-49
2023/12/10 12:37:16;;;;;;;17.30;4.00;;;14.00;99.90;;;;;;5146930;27;20031;-49
2023/12/10 12:39:42;;;;;;;27.77;6.05;;;13.10;99.90;;;;;;5146972;27;20023;-48
2023/12/10 12:42:07;;;;;;;24.70;7.55;;;12.60;99.90;;;;;;5146816;27;20030;-48